Time;durP1;ratioP1;P1;durP2;ratioP2;P2;SDS_P1;SDS_P2;PMS_P1;PMS_P2;Temp;Humidity;BMP_temperature;BMP_pressure;BME280_temperature;BME280_humidity;BME280_pressure;Samples;Min_cycle;Max_cycle;Signal;HPM_P1;HPM_P2
2021/12/19 00:09:19;;;;;;;18.55;11.48;;;;;;;2.79;100.00;100749.38;6277047;28;20047;-78
2021/12/19 00:12:20;;;;;;;23.83;11.10;;;;;;;2.74;100.00;100736.56;6276094;28;20142;-79
2021/12/19 00:15:21;;;;;;;20.63;12.30;;;;;;;2.55;100.00;100730.91;6276632;28;20037;-79
2021/12/19 00:18:22;;;;;;;24.90;12.90;;;;;;;2.71;100.00;100731.47;6241952;28;20068;-75
2021/12/19 00:21:25;;;;;;;21.65;12.30;;;;;;;2.66;100.00;100722.97;6276029;28;20476;-78
2021/12/19 00:24:26;;;;;;;21.60;11.57;;;;;;;2.57;100.00;100713.69;6275260;28;20044;-79
2021/12/19 00:27:27;;;;;;;21.90;11.77;;;;;;;2.50;100.00;100714.66;6258405;28;20049;-79
2021/12/19 00:30:27;;;;;;;24.33;13.05;;;;;;;2.51;100.00;100711.22;6275940;28;20057;-78
2021/12/19 00:33:28;;;;;;;24.15;12.40;;;;;;;2.58;100.00;100706.81;6275684;28;20037;-75
2021/12/19 00:36:29;;;;;;;28.55;13.95;;;;;;;2.45;100.00;100700.16;6257233;28;20531;-75
2021/12/19 00:39:30;;;;;;;27.58;13.32;;;;;;;2.38;100.00;100700.25;6275280;28;20033;-79
2021/12/19 00:42:36;;;;;;;21.08;11.82;;;;;;;2.39;100.00;100693.41;6257613;28;20056;-79
2021/12/19 00:45:40;;;;;;;23.88;11.93;;;;;;;2.31;100.00;100690.94;6274152;28;20399;-79
2021/12/19 00:48:44;;;;;;;23.90;13.18;;;;;;;2.36;100.00;100694.28;6257852;28;20037;-74
2021/12/19 00:51:45;;;;;;;30.77;12.85;;;;;;;2.58;100.00;100693.91;6274439;28;20095;-75
2021/12/19 00:54:46;;;;;;;19.27;11.88;;;;;;;2.65;100.00;100695.50;6273285;28;20045;-75
2021/12/19 00:57:48;;;;;;;24.75;12.40;;;;;;;2.60;100.00;100708.47;6273486;28;20047;-79
2021/12/19 01:00:49;;;;;;;25.58;12.27;;;;;;;2.41;100.00;100704.53;6273381;28;20046;-79
2021/12/19 01:03:50;;;;;;;18.40;10.45;;;;;;;2.35;100.00;100704.63;6273296;28;20037;-74
2021/12/19 01:06:51;;;;;;;21.33;11.93;;;;;;;2.33;100.00;100699.50;6256403;28;20080;-75
2021/12/19 01:09:53;;;;;;;27.08;12.88;;;;;;;2.34;100.00;100690.88;6273304;28;20052;-79
2021/12/19 01:12:53;;;;;;;25.17;12.63;;;;;;;2.27;100.00;100689.28;6273346;28;20072;-79
2021/12/19 01:15:57;;;;;;;22.75;12.55;;;;;;;2.15;100.00;100669.75;6256587;28;20095;-79
2021/12/19 01:18:58;;;;;;;25.80;12.55;;;;;;;2.19;100.00;100686.84;6274253;28;20045;-79
2021/12/19 01:21:59;;;;;;;28.27;13.68;;;;;;;2.33;100.00;100685.78;6273463;28;20404;-78
2021/12/19 01:25:00;;;;;;;24.10;12.10;;;;;;;2.26;100.00;100682.44;6273328;28;20053;-78
2021/12/19 01:28:01;;;;;;;22.48;12.95;;;;;;;2.27;100.00;100691.88;6256531;28;20403;-75
2021/12/19 01:31:02;;;;;;;25.98;12.55;;;;;;;2.29;100.00;100694.44;6256202;28;20057;-74
2021/12/19 01:34:03;;;;;;;24.38;12.90;;;;;;;2.29;100.00;100684.97;6272895;28;20480;-79
2021/12/19 01:37:04;;;;;;;23.77;12.43;;;;;;;2.26;100.00;100690.16;6256512;28;20115;-79
2021/12/19 01:40:07;;;;;;;26.15;13.32;;;;;;;2.29;100.00;100681.56;6272495;28;20423;-75
2021/12/19 01:43:08;;;;;;;28.75;13.70;;;;;;;2.19;100.00;100673.97;6273800;28;20120;-79
2021/12/19 01:46:09;;;;;;;36.20;16.67;;;;;;;2.10;100.00;100658.69;6272175;28;20533;-79
2021/12/19 01:49:11;;;;;;;24.17;13.82;;;;;;;2.00;100.00;100652.81;6272197;28;20044;-78
2021/12/19 01:52:12;;;;;;;22.25;12.38;;;;;;;2.06;100.00;100638.13;6273169;28;20041;-74
2021/12/19 01:55:13;;;;;;;27.42;13.82;;;;;;;2.14;100.00;100626.00;6255101;28;20479;-75
2021/12/19 01:58:15;;;;;;;27.23;12.15;;;;;;;1.90;100.00;100611.81;6271539;28;20041;-75
2021/12/19 02:01:16;;;;;;;;;;;;;;;1.88;100.00;100611.84;6272018;28;20135;-75
2021/12/19 02:04:20;;;;;;;27.20;12.63;;;;;;;1.92;100.00;100607.50;6254936;28;19962;-75
2021/12/19 02:07:20;;;;;;;29.23;13.65;;;;;;;1.93;100.00;100606.63;6272077;28;20044;-79
2021/12/19 02:10:24;;;;;;;30.23;12.93;;;;;;;1.91;100.00;100619.50;6273347;28;20545;-74
2021/12/19 02:13:25;;;;;;;23.90;12.52;;;;;;;1.89;100.00;100613.53;6272572;28;20048;-78
2021/12/19 02:16:25;;;;;;;23.85;12.57;;;;;;;1.96;100.00;100614.28;6272003;28;20506;-78
2021/12/19 02:19:29;;;;;;;22.27;12.23;;;;;;;1.89;100.00;100605.81;6254844;28;20037;-75
2021/12/19 02:22:30;;;;;;;27.27;13.38;;;;;;;1.88;100.00;100593.81;6271469;28;20033;-78
2021/12/19 02:25:32;;;;;;;25.38;13.65;;;;;;;1.90;100.00;100588.66;6271232;28;20403;-74
2021/12/19 02:28:33;;;;;;;24.80;13.95;;;;;;;1.76;100.00;100579.44;6270985;28;20124;-75
2021/12/19 02:31:34;;;;;;;29.42;13.60;;;;;;;1.76;100.00;100574.28;6272010;28;20514;-75
2021/12/19 02:34:41;;;;;;;24.27;13.65;;;;;;;1.46;100.00;100565.31;6270730;28;20480;-74
2021/12/19 02:50:51;;;;;;;26.48;13.70;;;;;;;1.59;100.00;100548.00;6272216;28;20131;-79
2021/12/19 02:53:52;;;;;;;28.88;13.60;;;;;;;1.45;100.00;100535.34;6270971;28;20063;-74
2021/12/19 02:56:53;;;;;;;32.53;14.35;;;;;;;1.43;100.00;100528.53;6271718;28;20048;-79
2021/12/19 02:59:54;;;;;;;25.75;14.25;;;;;;;1.41;100.00;100524.25;6256505;28;20041;-74
2021/12/19 03:02:55;;;;;;;28.08;12.95;;;;;;;1.38;100.00;100526.88;6221854;28;20071;-78
2021/12/19 03:05:58;;;;;;;30.80;13.63;;;;;;;1.37;100.00;100520.03;6271676;28;20086;-75
2021/12/19 03:09:04;;;;;;;26.42;13.55;;;;;;;1.42;100.00;100519.94;6272421;28;20044;-74
2021/12/19 03:12:10;;;;;;;30.85;15.38;;;;;;;1.39;100.00;100523.44;6271104;28;20114;-75
2021/12/19 03:18:31;;;;;;;33.35;15.77;;;;;;;1.37;100.00;100512.31;6271107;28;20041;-75
2021/12/19 03:21:32;;;;;;;26.98;16.00;;;;;;;1.31;100.00;100506.44;6270526;28;20191;-75
2021/12/19 03:24:33;;;;;;;29.60;14.07;;;;;;;1.48;100.00;100509.56;6253718;28;20056;-78
2021/12/19 03:27:33;;;;;;;30.27;13.57;;;;;;;1.47;100.00;100495.03;6271505;28;20049;-78
2021/12/19 03:30:36;;;;;;;27.60;13.55;;;;;;;1.39;100.00;100476.31;6270179;28;20099;-78
2021/12/19 03:33:38;;;;;;;26.00;14.65;;;;;;;1.37;100.00;100481.47;6271429;28;20037;-79
2021/12/19 03:36:38;;;;;;;29.77;13.03;;;;;;;1.34;100.00;100481.53;6273704;28;20403;-78
2021/12/19 03:39:56;;;;;;;27.08;14.07;;;;;;;1.42;100.00;100476.25;6242478;28;20048;-75
2021/12/19 03:42:56;;;;;;;28.67;15.20;;;;;;;1.29;100.00;100492.75;6260532;28;20044;-74
2021/12/19 03:45:57;;;;;;;25.58;14.07;;;;;;;1.30;100.00;100486.75;6258266;28;20048;-75
2021/12/19 03:48:58;;;;;;;28.42;13.40;;;;;;;1.34;100.00;100496.09;6274781;28;20044;-75
2021/12/19 03:51:59;;;;;;;28.85;14.57;;;;;;;1.34;100.00;100484.09;6275794;28;20168;-74
2021/12/19 03:55:00;;;;;;;28.70;13.85;;;;;;;1.35;100.00;100472.09;6274506;28;20534;-75
2021/12/19 03:58:02;;;;;;;28.63;14.82;;;;;;;1.41;100.00;100493.41;6274447;28;20049;-75
2021/12/19 04:01:06;;;;;;;;;;;;;;;1.32;100.00;100484.97;6275505;28;20040;-74
2021/12/19 04:04:07;;;;;;;29.38;12.85;;;;;;;1.41;100.00;100487.41;6274490;28;19920;-74
2021/12/19 04:07:08;;;;;;;29.48;14.50;;;;;;;1.35;100.00;100479.81;6275534;28;20040;-75
2021/12/19 04:10:09;;;;;;;23.98;12.88;;;;;;;1.27;100.00;100461.91;6258200;28;20075;-78
2021/12/19 04:13:10;;;;;;;24.73;12.77;;;;;;;1.34;100.00;100452.38;6275076;28;20086;-78
2021/12/19 04:16:11;;;;;;;23.67;12.73;;;;;;;1.38;100.00;100448.88;6257839;28;20052;-74
2021/12/19 04:19:12;;;;;;;18.17;10.77;;;;;;;1.26;100.00;100455.09;6257642;28;20407;-74
2021/12/19 04:22:13;;;;;;;24.88;11.98;;;;;;;1.43;100.00;100449.66;6273958;28;20041;-75
2021/12/19 04:25:14;;;;;;;27.95;13.80;;;;;;;1.41;100.00;100454.81;6273938;28;20484;-74
2021/12/19 04:28:15;;;;;;;28.35;12.95;;;;;;;1.37;100.00;100458.31;6274914;28;20041;-74
2021/12/19 04:31:16;;;;;;;23.73;11.93;;;;;;;1.33;100.00;100438.69;6274911;28;20153;-74
2021/12/19 04:34:17;;;;;;;25.42;12.20;;;;;;;1.35;100.00;100426.66;6273893;28;20119;-74
2021/12/19 04:40:46;;;;;;;27.58;12.48;;;;;;;1.20;100.00;100419.22;6274524;28;20037;-79
2021/12/19 05:00:33;;;;;;;26.27;12.90;;;;;;;1.08;100.00;100401.41;6274105;28;20120;-74
2021/12/19 05:16:46;;;;;;;22.65;12.25;;;;;;;1.20;100.00;100378.06;6273945;28;20480;-74
2021/12/19 05:19:53;;;;;;;27.85;12.70;;;;;;;1.08;100.00;100370.56;6273786;28;20041;-78
2021/12/19 05:23:01;;;;;;;28.17;13.23;;;;;;;1.20;100.00;100388.34;6257349;28;20396;-78
2021/12/19 05:26:02;;;;;;;26.27;13.73;;;;;;;1.13;100.00;100374.78;6272906;28;20391;-78
2021/12/19 05:29:03;;;;;;;25.98;12.13;;;;;;;1.18;100.00;100375.53;6239610;28;20045;-74
2021/12/19 05:32:06;;;;;;;25.40;13.93;;;;;;;1.08;100.00;100366.28;6273434;28;20059;-74
2021/12/19 05:35:08;;;;;;;25.15;12.70;;;;;;;1.20;100.00;100362.66;6272176;28;20403;-74
2021/12/19 05:47:54;;;;;;;25.23;12.85;;;;;;;1.04;100.00;100344.06;6273116;28;20061;-75
2021/12/19 05:50:55;;;;;;;26.27;13.55;;;;;;;1.16;100.00;100338.72;6271950;28;20049;-75
2021/12/19 05:53:56;;;;;;;21.85;12.02;;;;;;;1.19;100.00;100330.97;6273028;28;20044;-74
2021/12/19 05:56:57;;;;;;;22.65;11.73;;;;;;;1.04;100.00;100322.66;6272875;28;20037;-75
2021/12/19 05:59:58;;;;;;;17.85;9.68;;;;;;;1.02;100.00;100329.56;6254401;28;20401;-74
2021/12/19 06:03:01;;;;;;;18.53;9.27;;;;;;;0.94;100.00;100319.41;6271450;28;20114;-74
2021/12/19 06:06:02;;;;;;;20.20;10.90;;;;;;;1.06;100.00;100301.19;6272786;28;20132;-74
2021/12/19 06:09:05;;;;;;;23.25;11.85;;;;;;;1.00;100.00;100304.72;6271424;28;20041;-74
2021/12/19 06:12:06;;;;;;;25.50;11.93;;;;;;;1.05;100.00;100298.66;6271422;28;20548;-74
2021/12/19 06:15:09;;;;;;;27.45;13.02;;;;;;;1.01;100.00;100292.75;6273092;28;20044;-75
2021/12/19 06:18:10;;;;;;;28.95;12.85;;;;;;;0.95;100.00;100298.84;6272392;28;20037;-78
2021/12/19 06:21:11;;;;;;;26.10;13.43;;;;;;;1.00;100.00;100289.31;6271793;28;20041;-79
2021/12/19 06:24:11;;;;;;;23.13;12.50;;;;;;;0.94;100.00;100286.84;6255323;28;20044;-79
2021/12/19 06:27:12;;;;;;;33.67;12.75;;;;;;;1.03;100.00;100279.84;6272517;28;20033;-74
2021/12/19 06:30:13;;;;;;;28.15;14.02;;;;;;;0.93;100.00;100289.47;6271062;28;20064;-80
2021/12/19 06:33:15;;;;;;;23.05;11.23;;;;;;;0.86;100.00;100282.72;6272847;28;20041;-79
2021/12/19 06:36:16;;;;;;;23.13;12.70;;;;;;;0.92;100.00;100291.16;6272613;28;20055;-75
2021/12/19 06:39:17;;;;;;;18.58;10.45;;;;;;;0.79;100.00;100280.25;6272000;28;20041;-78
2021/12/19 06:42:18;;;;;;;34.30;14.80;;;;;;;0.99;100.00;100274.78;6271519;28;20606;-79
2021/12/19 06:45:20;;;;;;;31.55;14.35;;;;;;;1.02;100.00;100273.03;6254628;28;20045;-79
2021/12/19 06:48:24;;;;;;;25.85;13.32;;;;;;;1.00;100.00;100261.03;6254427;28;20112;-78
2021/12/19 06:51:25;;;;;;;35.40;16.95;;;;;;;1.06;100.00;100260.09;6271687;28;20051;-75
2021/12/19 06:54:25;;;;;;;28.77;14.95;;;;;;;1.14;100.00;100244.53;6271057;28;20068;-74
2021/12/19 06:57:26;;;;;;;31.90;14.57;;;;;;;1.06;100.00;100247.25;6270451;28;20541;-79
2021/12/19 07:00:27;;;;;;;25.70;12.95;;;;;;;0.98;100.00;100254.25;6271990;28;20480;-79
2021/12/19 07:03:28;;;;;;;31.02;15.88;;;;;;;0.99;100.00;100249.09;6270671;28;20381;-74
2021/12/19 07:06:29;;;;;;;30.20;15.60;;;;;;;1.07;100.00;100259.22;6270199;28;20411;-75
2021/12/19 07:09:30;;;;;;;31.23;14.43;;;;;;;1.06;100.00;100264.38;6270717;28;20049;-75
2021/12/19 07:12:31;;;;;;;29.10;15.98;;;;;;;1.04;100.00;100261.00;6253404;28;20060;-74
2021/12/19 07:15:31;;;;;;;33.55;16.55;;;;;;;1.23;100.00;100258.91;6270049;28;20476;-79
2021/12/19 07:18:33;;;;;;;26.27;11.60;;;;;;;1.03;100.00;100247.31;6270587;28;20037;-78
2021/12/19 07:21:34;;;;;;;37.53;14.52;;;;;;;1.04;100.00;100243.00;6269935;28;20041;-75
2021/12/19 07:24:35;;;;;;;24.58;12.73;;;;;;;1.06;100.00;100229.25;6270168;28;20102;-74
2021/12/19 07:27:36;;;;;;;25.60;14.27;;;;;;;1.19;100.00;100233.28;6271025;28;20041;-75
2021/12/19 07:30:38;;;;;;;36.10;16.75;;;;;;;1.18;100.00;100220.47;6253176;28;20415;-75
2021/12/19 07:33:39;;;;;;;33.42;15.05;;;;;;;1.26;100.00;100212.59;6271178;28;20445;-75
2021/12/19 07:36:45;;;;;;;33.10;16.17;;;;;;;1.32;100.00;100212.44;6271240;28;20037;-78
2021/12/19 07:40:21;;;;;;;40.30;17.48;;;;;;;1.22;100.00;100214.38;6271202;28;20488;-78
2021/12/19 07:43:14;;;;;;;39.47;13.93;;;;;;;1.18;100.00;100205.88;6271047;28;20049;-77
2021/12/19 07:46:15;;;;;;;33.47;16.17;;;;;;;1.28;100.00;100205.72;6254715;28;20406;-75
2021/12/19 07:49:16;;;;;;;31.35;16.13;;;;;;;1.25;100.00;100208.31;6245180;28;20049;-75
2021/12/19 07:52:17;;;;;;;32.55;16.67;;;;;;;1.22;100.00;100208.41;6253718;28;20045;-78
2021/12/19 07:55:18;;;;;;;37.20;17.88;;;;;;;1.28;100.00;100203.13;6270056;28;20044;-78
2021/12/19 07:58:18;;;;;;;26.80;13.45;;;;;;;1.27;100.00;100199.69;6250063;28;20041;-75
2021/12/19 08:01:19;;;;;;;35.80;15.23;;;;;;;1.30;100.00;100189.38;6245945;28;20038;-75
2021/12/19 08:04:20;;;;;;;27.90;15.77;;;;;;;1.29;100.00;100173.97;6245412;28;20076;-77
2021/12/19 08:07:23;;;;;;;38.10;18.02;;;;;;;1.36;100.00;100183.22;6264420;28;20041;-75
2021/12/19 08:13:25;;;;;;;32.40;15.57;;;;;;;1.37;100.00;100182.38;6269445;28;20052;-78
2021/12/19 08:16:26;;;;;;;33.90;15.82;;;;;;;1.40;100.00;100180.59;6270381;28;20136;-79
2021/12/19 08:19:27;;;;;;;36.40;16.02;;;;;;;1.37;100.00;100188.34;6271009;28;20121;-78
2021/12/19 08:22:29;;;;;;;31.85;16.58;;;;;;;1.54;100.00;100197.44;6256040;28;20053;-75
2021/12/19 08:25:30;;;;;;;35.80;16.67;;;;;;;1.61;100.00;100192.13;6257599;28;20433;-75
2021/12/19 08:28:31;;;;;;;36.00;15.85;;;;;;;1.66;100.00;100186.88;6273574;28;20037;-76
2021/12/19 08:31:32;;;;;;;36.63;17.40;;;;;;;1.66;100.00;100193.75;6273546;28;20053;-76
2021/12/19 08:34:33;;;;;;;34.20;15.93;;;;;;;1.71;100.00;100185.06;6273598;28;20063;-74
2021/12/19 08:37:33;;;;;;;30.58;15.85;;;;;;;1.70;100.00;100201.34;6273950;28;20045;-77
2021/12/19 08:40:35;;;;;;;31.67;15.60;;;;;;;1.79;100.00;100188.31;6258135;28;20045;-78
2021/12/19 08:43:35;;;;;;;34.58;16.98;;;;;;;1.85;100.00;100168.44;6276008;28;20495;-78
2021/12/19 08:46:38;;;;;;;37.33;17.27;;;;;;;1.76;100.00;100161.78;6273795;28;20103;-80
2021/12/19 08:49:40;;;;;;;38.88;18.35;;;;;;;1.87;100.00;100152.06;6275090;28;20055;-78
2021/12/19 08:52:42;;;;;;;32.90;16.90;;;;;;;1.83;100.00;100162.50;6273937;28;20499;-78
2021/12/19 08:55:44;;;;;;;30.23;15.48;;;;;;;1.79;100.00;100157.44;6273136;28;20072;-78
2021/12/19 08:58:45;;;;;;;26.17;14.35;;;;;;;1.75;100.00;100154.94;6257274;28;20044;-79
2021/12/19 09:01:47;;;;;;;38.10;16.30;;;;;;;1.90;100.00;100144.31;6273170;28;20491;-75
2021/12/19 09:04:48;;;;;;;35.67;14.80;;;;;;;1.72;100.00;100127.56;6274220;28;20598;-76
2021/12/19 09:07:50;;;;;;;28.92;15.32;;;;;;;1.71;100.00;100102.72;6256683;28;20174;-79
2021/12/19 09:10:52;;;;;;;34.63;16.95;;;;;;;1.78;100.00;100099.13;6257146;28;20073;-76
2021/12/19 09:13:53;;;;;;;31.48;16.58;;;;;;;1.85;100.00;100097.25;6253765;28;20042;-75
2021/12/19 09:16:54;;;;;;;32.45;15.27;;;;;;;1.96;100.00;100102.16;6255318;28;20143;-76
2021/12/19 09:19:55;;;;;;;26.63;14.80;;;;;;;1.96;100.00;100086.69;6273273;28;20043;-75
2021/12/19 09:22:56;;;;;;;29.35;15.20;;;;;;;1.94;100.00;100079.00;6255945;28;20506;-76
2021/12/19 09:25:56;;;;;;;28.00;14.63;;;;;;;1.98;100.00;100074.63;6273051;28;20102;-77
2021/12/19 09:28:57;;;;;;;33.72;15.80;;;;;;;2.07;100.00;100058.09;6273838;28;20103;-78
2021/12/19 09:31:59;;;;;;;28.38;15.27;;;;;;;2.06;100.00;100049.56;6273164;28;20132;-76
2021/12/19 09:35:00;;;;;;;30.15;14.27;;;;;;;1.99;100.00;100042.84;6273735;28;20037;-78
2021/12/19 09:38:03;;;;;;;38.30;17.17;;;;;;;2.09;100.00;100038.31;6256541;28;20075;-76
2021/12/19 09:41:13;;;;;;;29.25;14.10;;;;;;;2.11;100.00;100028.81;6272686;28;20045;-75
2021/12/19 09:44:15;;;;;;;32.30;14.40;;;;;;;2.19;100.00;100008.88;6272564;28;20427;-75
2021/12/19 09:47:16;;;;;;;28.35;13.75;;;;;;;2.17;100.00;100005.50;6272089;28;20080;-75
2021/12/19 09:50:18;;;;;;;32.25;16.95;;;;;;;2.21;100.00;100009.69;6272841;28;20472;-75
2021/12/19 09:53:19;;;;;;;35.97;15.45;;;;;;;2.26;100.00;100000.09;6272724;28;20036;-75
2021/12/19 09:56:20;;;;;;;28.85;14.48;;;;;;;2.29;100.00;99999.19;6271297;28;20045;-75
2021/12/19 09:59:22;;;;;;;33.63;17.13;;;;;;;2.36;100.00;100005.81;6273615;28;20139;-75
2021/12/19 10:02:23;;;;;;;35.27;16.67;;;;;;;2.39;100.00;99978.25;6274128;28;20047;-75
2021/12/19 10:05:27;;;;;;;35.47;15.52;;;;;;;2.33;100.00;99978.44;6272455;28;20642;-74
2021/12/19 10:08:27;;;;;;;30.13;15.00;;;;;;;2.33;100.00;99981.00;6274512;28;20052;-77
2021/12/19 10:11:47;;;;;;;35.67;17.65;;;;;;;2.32;100.00;99987.03;6272506;28;20053;-75
2021/12/19 10:14:48;;;;;;;31.33;14.55;;;;;;;2.31;100.00;99967.34;6273447;28;20044;-75
2021/12/19 10:18:00;;;;;;;33.22;16.83;;;;;;;2.41;100.00;99960.19;6273380;28;20052;-75
2021/12/19 10:21:01;;;;;;;35.75;16.80;;;;;;;2.45;100.00;99971.25;6271986;28;20055;-77
2021/12/19 10:24:03;;;;;;;36.75;15.90;;;;;;;2.59;100.00;99969.97;6256483;28;20041;-77
2021/12/19 10:27:03;;;;;;;33.72;16.42;;;;;;;2.62;100.00;99981.91;6272221;28;20083;-75
2021/12/19 10:30:23;;;;;;;52.13;27.77;;;;;;;2.65;100.00;99980.97;6256463;28;20543;-78
2021/12/19 10:33:31;;;;;;;35.97;17.23;;;;;;;2.77;100.00;99981.44;6274038;28;20037;-79
2021/12/19 10:36:42;;;;;;;32.10;14.02;;;;;;;2.71;100.00;99966.16;6273975;28;20120;-77
2021/12/19 10:39:45;;;;;;;34.30;16.75;;;;;;;2.83;100.00;99963.22;6273401;28;20139;-75
2021/12/19 10:42:59;;;;;;;29.80;16.20;;;;;;;2.85;100.00;99976.06;6253005;28;20056;-75
2021/12/19 10:46:02;;;;;;;31.50;16.08;;;;;;;2.94;100.00;99973.19;6246635;28;20046;-75
2021/12/19 10:49:05;;;;;;;32.40;17.20;;;;;;;2.89;100.00;99969.09;6248141;28;20573;-75
2021/12/19 10:52:07;;;;;;;29.10;17.17;;;;;;;2.96;100.00;99963.66;6247106;28;20079;-75
2021/12/19 10:55:12;;;;;;;31.02;17.55;;;;;;;3.11;100.00;99985.56;6246876;28;20041;-75
2021/12/19 10:58:27;;;;;;;32.53;17.98;;;;;;;3.04;100.00;99981.50;6263009;28;20055;-78
2021/12/19 11:01:33;;;;;;;35.58;19.00;;;;;;;3.11;100.00;99983.00;6271827;28;20063;-79
2021/12/19 11:04:35;;;;;;;44.55;25.08;;;;;;;3.19;100.00;99972.41;6272078;28;20057;-78
2021/12/19 11:07:36;;;;;;;30.33;18.15;;;;;;;3.25;100.00;99966.22;6273217;28;20044;-78
2021/12/19 11:10:38;;;;;;;32.75;18.50;;;;;;;3.20;100.00;99959.50;6255584;28;20045;-79
2021/12/19 11:13:39;;;;;;;43.63;23.65;;;;;;;3.36;100.00;99952.09;6273282;28;20040;-79
2021/12/19 11:16:41;;;;;;;45.22;22.73;;;;;;;3.35;100.00;99949.56;6272101;28;20052;-79
2021/12/19 11:19:43;;;;;;;37.35;18.83;;;;;;;3.40;100.00;99942.53;6271909;28;20124;-79
2021/12/19 11:22:44;;;;;;;33.47;17.07;;;;;;;3.45;100.00;99945.78;6270997;28;20094;-76
2021/12/19 11:25:45;;;;;;;46.00;22.35;;;;;;;3.52;100.00;99952.44;6271606;28;20479;-78
2021/12/19 11:28:47;;;;;;;47.67;22.20;;;;;;;3.57;100.00;99937.63;6254901;28;20128;-76
2021/12/19 11:31:57;;;;;;;43.45;21.80;;;;;;;3.54;100.00;99931.72;6270485;28;20052;-76
2021/12/19 11:35:09;;;;;;;50.35;26.75;;;;;;;3.59;100.00;99940.16;6272125;28;20047;-76
2021/12/19 11:38:12;;;;;;;34.33;19.45;;;;;;;3.51;100.00;99930.09;6271453;28;20044;-75
2021/12/19 11:41:12;;;;;;;34.58;18.35;;;;;;;3.54;100.00;99924.84;6270709;28;20037;-78
2021/12/19 11:48:10;;;;;;;46.78;23.90;;;;;;;3.45;100.00;99908.84;6272954;28;20052;-79
2021/12/19 11:51:20;;;;;;;48.60;24.92;;;;;;;3.59;100.00;99909.22;6272947;28;20048;-79
2021/12/19 11:54:21;;;;;;;37.30;19.45;;;;;;;3.63;100.00;99915.94;6272833;28;20041;-78
2021/12/19 11:57:21;;;;;;;45.40;23.80;;;;;;;3.68;100.00;99908.03;6257841;28;20051;-78
2021/12/19 12:00:34;;;;;;;41.90;20.80;;;;;;;3.60;100.00;99898.84;6277424;28;20045;-79
2021/12/19 12:03:44;;;;;;;36.95;19.05;;;;;;;3.64;100.00;99894.41;6277013;28;20045;-78
2021/12/19 12:06:56;;;;;;;36.80;19.23;;;;;;;3.65;100.00;99885.78;6274988;28;20126;-75
2021/12/19 12:09:57;;;;;;;36.65;19.63;;;;;;;3.58;100.00;99897.19;6274408;28;20055;-75
2021/12/19 12:12:58;;;;;;;40.13;20.08;;;;;;;3.57;100.00;99893.78;6274450;28;20417;-75
2021/12/19 12:16:19;;;;;;;42.58;20.40;;;;;;;3.62;100.00;99891.03;6275656;28;20041;-75
2021/12/19 12:19:40;;;;;;;28.02;16.98;;;;;;;3.70;100.00;99898.50;6276564;28;20045;-75
2021/12/19 12:22:51;;;;;;;33.17;17.42;;;;;;;3.71;100.00;99900.22;6274737;28;20032;-75
2021/12/19 12:25:52;;;;;;;30.88;17.95;;;;;;;3.71;100.00;99889.88;6275083;28;20135;-75
2021/12/19 12:28:54;;;;;;;34.17;17.00;;;;;;;3.77;100.00;99884.50;6276054;28;20071;-78
2021/12/19 12:31:55;;;;;;;40.72;21.75;;;;;;;3.74;100.00;99889.75;6276596;28;20056;-78
2021/12/19 12:34:57;;;;;;;46.35;26.15;;;;;;;3.73;100.00;99878.59;6275898;28;20059;-78
2021/12/19 12:37:59;;;;;;;34.85;21.45;;;;;;;3.71;100.00;99874.41;6276600;28;20037;-75
2021/12/19 12:41:09;;;;;;;47.22;24.83;;;;;;;3.76;100.00;99870.75;6275990;28;20048;-78
2021/12/19 12:44:15;;;;;;;39.95;23.23;;;;;;;3.76;100.00;99875.91;6260334;28;20056;-78
2021/12/19 12:47:16;;;;;;;51.58;27.83;;;;;;;3.74;100.00;99872.53;6276498;28;20418;-77
2021/12/19 12:50:17;;;;;;;50.50;27.02;;;;;;;3.71;100.00;99854.59;6274945;28;20045;-75
2021/12/19 12:53:32;;;;;;;53.63;29.33;;;;;;;3.68;100.00;99846.09;6257901;28;20049;-78
2021/12/19 12:56:42;;;;;;;47.28;26.83;;;;;;;3.59;100.00;99847.28;6276036;28;20389;-75
2021/12/19 12:59:43;;;;;;;77.82;36.53;;;;;;;3.53;100.00;99822.53;6274318;28;20124;-75
2021/12/19 13:02:45;;;;;;;52.00;26.65;;;;;;;3.70;100.00;99796.13;6275337;28;20385;-75
2021/12/19 13:05:48;;;;;;;40.30;20.80;;;;;;;3.71;100.00;99789.25;6275230;28;20048;-75
2021/12/19 13:09:12;;;;;;;37.40;18.65;;;;;;;3.47;100.00;99776.31;6273425;28;20135;-75
2021/12/19 13:12:28;;;;;;;43.45;21.17;;;;;;;3.57;100.00;99782.84;6275228;28;20458;-76
2021/12/19 13:15:29;;;;;;;33.22;19.75;;;;;;;3.57;100.00;99774.25;6275132;28;20587;-76
2021/12/19 13:18:30;;;;;;;29.27;17.40;;;;;;;3.35;100.00;99775.03;6224331;28;20119;-75
2021/12/19 13:21:54;;;;;;;52.70;30.75;;;;;;;3.49;100.00;99782.28;6273799;28;20055;-78
2021/12/19 13:24:59;;;;;;;38.50;20.35;;;;;;;3.58;100.00;99781.09;6275385;28;20041;-78
2021/12/19 13:28:02;;;;;;;33.15;19.50;;;;;;;3.53;100.00;99778.69;6275265;28;20036;-77
2021/12/19 13:31:03;;;;;;;36.47;19.27;;;;;;;3.50;100.00;99780.53;6257647;28;20423;-77
2021/12/19 13:34:12;;;;;;;38.15;19.73;;;;;;;3.55;100.00;99761.41;6257552;28;20040;-78
2021/12/19 13:37:13;;;;;;;39.17;20.15;;;;;;;3.46;100.00;99753.16;6275087;28;20098;-78
2021/12/19 13:40:16;;;;;;;35.80;19.90;;;;;;;3.38;100.00;99745.72;6257132;28;20091;-78
2021/12/19 13:43:22;;;;;;;33.72;18.98;;;;;;;3.39;100.00;99739.66;6274799;28;20044;-77
2021/12/19 13:46:27;;;;;;;39.13;20.05;;;;;;;3.35;100.00;99731.19;6273180;28;20403;-76
2021/12/19 13:49:28;;;;;;;41.53;20.33;;;;;;;3.33;100.00;99730.41;6273500;28;20506;-76
2021/12/19 13:52:29;;;;;;;41.70;21.58;;;;;;;3.36;100.00;99722.56;6273721;28;20037;-77
2021/12/19 13:55:41;;;;;;;42.58;20.85;;;;;;;3.33;100.00;99721.81;6272981;28;20045;-77
2021/12/19 13:58:53;;;;;;;40.83;21.23;;;;;;;3.35;100.00;99707.97;6273238;28;20488;-77
2021/12/19 14:01:54;;;;;;;43.05;21.85;;;;;;;3.23;100.00;99718.72;6272642;28;20049;-76
2021/12/19 14:04:55;;;;;;;39.75;21.15;;;;;;;3.13;100.00;99707.94;6273952;28;20040;-78
2021/12/19 14:07:56;;;;;;;46.67;23.98;;;;;;;3.22;100.00;99697.28;6272761;28;20228;-77
2021/12/19 14:11:18;;;;;;;45.13;22.42;;;;;;;3.28;100.00;99695.38;6273698;28;20052;-78
2021/12/19 14:14:30;;;;;;;56.72;28.38;;;;;;;3.17;100.00;99704.34;6273623;28;20041;-77
2021/12/19 14:17:30;;;;;;;60.67;30.80;;;;;;;3.15;100.00;99693.25;6273709;28;20403;-77
2021/12/19 14:20:35;;;;;;;47.70;24.58;;;;;;;3.20;100.00;99699.06;6273021;28;20055;-78
2021/12/19 14:23:39;;;;;;;43.60;23.15;;;;;;;3.25;100.00;99686.00;6273471;28;20056;-77
2021/12/19 14:26:42;;;;;;;46.90;21.52;;;;;;;3.12;100.00;99689.94;6271980;28;20048;-78
2021/12/19 14:29:47;;;;;;;45.83;20.05;;;;;;;3.18;100.00;99695.69;6273455;28;20049;-76
2021/12/19 14:32:58;;;;;;;39.90;20.45;;;;;;;3.24;100.00;99694.63;6272951;28;20056;-77
2021/12/19 14:35:59;;;;;;;36.60;21.42;;;;;;;3.05;100.00;99684.16;6273838;28;20041;-77
2021/12/19 14:39:01;;;;;;;50.93;24.77;;;;;;;3.03;100.00;99688.53;6256183;28;20372;-78
2021/12/19 14:42:12;;;;;;;49.05;23.23;;;;;;;3.23;100.00;99700.69;6272528;28;20037;-78
2021/12/19 14:45:29;;;;;;;40.42;22.20;;;;;;;3.25;100.00;99692.91;6272372;28;20052;-78
2021/12/19 14:48:39;;;;;;;54.28;27.40;;;;;;;3.24;100.00;99692.06;6273108;28;20488;-79
2021/12/19 14:51:41;;;;;;;44.17;19.80;;;;;;;3.32;100.00;99697.78;6255052;28;20072;-77
2021/12/19 14:54:41;;;;;;;48.30;22.73;;;;;;;3.35;100.00;99699.41;6273098;28;20037;-78
2021/12/19 14:57:42;;;;;;;39.25;22.65;;;;;;;3.31;100.00;99690.94;6271885;28;20045;-78
2021/12/19 15:00:49;;;;;;;75.05;37.83;;;;;;;3.15;100.00;99695.81;6271621;28;20846;-77
2021/12/19 15:03:58;;;;;;;59.50;32.35;;;;;;;3.25;100.00;99693.72;6255741;28;20098;-77
2021/12/19 15:07:00;;;;;;;48.03;25.63;;;;;;;3.20;100.00;99685.34;6272901;28;20037;-78
2021/12/19 15:10:01;;;;;;;43.13;23.60;;;;;;;3.15;100.00;99682.94;6271624;28;20495;-78